ΕΜΥ, Εθνική Μετεωρολογική Υπηρεσία - Δελτία Καιρού, Προγνώσεις

ΑΕΡΟΝΑΥΤΙΛΙΑ

GREEK AIRPORTS CODES

TAF LGHI 292300Z 3000/3009 VRB05KT 9999 SCT020 PROB40 TEMPO 3000/3009 14010KT 5000 RA SCT018TCU BKN020 BKN060 PROB30 TEMPO 3000/3006 3000 TSRA SCT012 FEW016CB BKN020 OVC060=

EUROPEAN AIRPORTS CODES